sensor_id;sensor_type;location;lat;lon;timestamp;pressure;altitude;pressure_sealevel;temperature;humidity
16613;BME280;8419;52.358;9.752;2022-09-09T00:00:23;100247.00;;;25.33;45.66
16613;BME280;8419;52.358;9.752;2022-09-09T00:03:14;100248.00;;;25.31;45.71
16613;BME280;8419;52.358;9.752;2022-09-09T00:06:08;100237.00;;;25.34;45.61
16613;BME280;8419;52.358;9.752;2022-09-09T00:09:04;100243.00;;;25.33;45.63
16613;BME280;8419;52.358;9.752;2022-09-09T00:11:54;100242.00;;;25.27;45.68
16613;BME280;8419;52.358;9.752;2022-09-09T00:14:49;100247.00;;;25.37;45.43
16613;BME280;8419;52.358;9.752;2022-09-09T00:17:41;100241.00;;;25.22;45.70
16613;BME280;8419;52.358;9.752;2022-09-09T00:20:33;100242.00;;;25.27;45.55
16613;BME280;8419;52.358;9.752;2022-09-09T00:23:25;100241.00;;;25.30;45.47
16613;BME280;8419;52.358;9.752;2022-09-09T00:26:16;100245.00;;;25.31;45.42
16613;BME280;8419;52.358;9.752;2022-09-09T00:29:13;100233.00;;;25.28;45.42
16613;BME280;8419;52.358;9.752;2022-09-09T00:32:09;100239.00;;;25.19;45.61
16613;BME280;8419;52.358;9.752;2022-09-09T00:35:02;100239.00;;;25.18;45.51
16613;BME280;8419;52.358;9.752;2022-09-09T00:37:51;100231.00;;;25.08;45.62
16613;BME280;8419;52.358;9.752;2022-09-09T00:40:44;100235.00;;;25.16;45.39
16613;BME280;8419;52.358;9.752;2022-09-09T00:43:32;100234.00;;;25.14;45.44
16613;BME280;8419;52.358;9.752;2022-09-09T00:46:40;100227.00;;;25.02;45.59
16613;BME280;8419;52.358;9.752;2022-09-09T00:49:34;100233.00;;;25.06;45.53
16613;BME280;8419;52.358;9.752;2022-09-09T00:52:32;100229.00;;;25.03;45.48
16613;BME280;8419;52.358;9.752;2022-09-09T00:55:27;100228.00;;;25.00;45.53
16613;BME280;8419;52.358;9.752;2022-09-09T00:58:17;100235.00;;;25.00;45.41
16613;BME280;8419;52.358;9.752;2022-09-09T01:01:06;100223.00;;;25.01;45.31
16613;BME280;8419;52.358;9.752;2022-09-09T01:03:53;100226.00;;;25.00;45.29
16613;BME280;8419;52.358;9.752;2022-09-09T01:06:39;100230.00;;;24.98;45.30
16613;BME280;8419;52.358;9.752;2022-09-09T01:09:32;100228.00;;;24.93;45.35
16613;BME280;8419;52.358;9.752;2022-09-09T01:12:25;100234.00;;;25.00;45.21
16613;BME280;8419;52.358;9.752;2022-09-09T01:15:14;100239.00;;;25.00;45.15
16613;BME280;8419;52.358;9.752;2022-09-09T01:18:06;100236.00;;;24.94;45.21
16613;BME280;8419;52.358;9.752;2022-09-09T01:21:04;100226.00;;;25.02;45.00
16613;BME280;8419;52.358;9.752;2022-09-09T01:24:12;100230.00;;;25.04;44.95
16613;BME280;8419;52.358;9.752;2022-09-09T01:27:02;100228.00;;;25.04;44.96
16613;BME280;8419;52.358;9.752;2022-09-09T01:29:50;100232.00;;;25.07;44.78
16613;BME280;8419;52.358;9.752;2022-09-09T01:32:40;100230.00;;;25.13;44.71
16613;BME280;8419;52.358;9.752;2022-09-09T01:35:37;100222.00;;;25.12;44.78
16613;BME280;8419;52.358;9.752;2022-09-09T01:38:25;100221.00;;;25.18;44.68
16613;BME280;8419;52.358;9.752;2022-09-09T01:41:10;100223.00;;;25.16;44.57
16613;BME280;8419;52.358;9.752;2022-09-09T01:43:57;100237.00;;;25.11;44.61
16613;BME280;8419;52.358;9.752;2022-09-09T01:46:42;100229.00;;;25.08;44.61
16613;BME280;8419;52.358;9.752;2022-09-09T01:49:28;100234.00;;;25.06;44.58
16613;BME280;8419;52.358;9.752;2022-09-09T01:52:14;100228.00;;;25.07;44.47
16613;BME280;8419;52.358;9.752;2022-09-09T01:54:59;100225.00;;;25.04;44.48
16613;BME280;8419;52.358;9.752;2022-09-09T01:57:50;100227.00;;;24.99;44.54
16613;BME280;8419;52.358;9.752;2022-09-09T02:00:43;100224.00;;;24.97;44.55
16613;BME280;8419;52.358;9.752;2022-09-09T02:03:32;100233.00;;;24.94;44.56
16613;BME280;8419;52.358;9.752;2022-09-09T02:06:27;100230.00;;;24.92;44.53
16613;BME280;8419;52.358;9.752;2022-09-09T02:09:17;100234.00;;;24.91;44.54
16613;BME280;8419;52.358;9.752;2022-09-09T02:12:08;100240.00;;;25.00;44.34
16613;BME280;8419;52.358;9.752;2022-09-09T02:15:03;100229.00;;;24.99;44.34
16613;BME280;8419;52.358;9.752;2022-09-09T02:17:51;100232.00;;;24.90;44.48
16613;BME280;8419;52.358;9.752;2022-09-09T02:20:38;100228.00;;;24.78;44.70
16613;BME280;8419;52.358;9.752;2022-09-09T02:23:24;100233.00;;;24.77;44.76
16613;BME280;8419;52.358;9.752;2022-09-09T02:26:12;100235.00;;;24.84;44.58
16613;BME280;8419;52.358;9.752;2022-09-09T02:29:08;100227.00;;;24.84;44.54
16613;BME280;8419;52.358;9.752;2022-09-09T02:31:56;100234.00;;;24.91;44.43
16613;BME280;8419;52.358;9.752;2022-09-09T02:34:45;100223.00;;;24.97;44.35
16613;BME280;8419;52.358;9.752;2022-09-09T02:37:36;100232.00;;;25.05;44.22
16613;BME280;8419;52.358;9.752;2022-09-09T02:40:23;100222.00;;;25.20;43.97
16613;BME280;8419;52.358;9.752;2022-09-09T02:43:08;100225.00;;;25.04;44.27
16613;BME280;8419;52.358;9.752;2022-09-09T02:45:59;100218.00;;;25.08;44.16
16613;BME280;8419;52.358;9.752;2022-09-09T02:48:52;100224.00;;;25.13;44.16
16613;BME280;8419;52.358;9.752;2022-09-09T02:51:47;100223.00;;;25.22;44.01
16613;BME280;8419;52.358;9.752;2022-09-09T02:54:38;100216.00;;;25.28;43.93
16613;BME280;8419;52.358;9.752;2022-09-09T02:57:26;100220.00;;;25.35;43.75
16613;BME280;8419;52.358;9.752;2022-09-09T03:00:15;100229.00;;;25.32;43.77
16613;BME280;8419;52.358;9.752;2022-09-09T03:03:00;100223.00;;;25.29;43.84
16613;BME280;8419;52.358;9.752;2022-09-09T03:05:46;100225.00;;;25.30;43.81
16613;BME280;8419;52.358;9.752;2022-09-09T03:08:32;100227.00;;;25.28;43.87
16613;BME280;8419;52.358;9.752;2022-09-09T03:11:18;100230.00;;;25.33;43.80
16613;BME280;8419;52.358;9.752;2022-09-09T03:14:03;100233.00;;;25.37;43.75
16613;BME280;8419;52.358;9.752;2022-09-09T03:16:49;100230.00;;;25.37;43.75
16613;BME280;8419;52.358;9.752;2022-09-09T03:19:35;100234.00;;;25.42;43.67
16613;BME280;8419;52.358;9.752;2022-09-09T03:22:21;100242.00;;;25.44;43.68
16613;BME280;8419;52.358;9.752;2022-09-09T03:25:08;100233.00;;;25.48;43.58
16613;BME280;8419;52.358;9.752;2022-09-09T03:27:55;100235.00;;;25.55;43.47
16613;BME280;8419;52.358;9.752;2022-09-09T03:30:41;100225.00;;;25.50;43.54
16613;BME280;8419;52.358;9.752;2022-09-09T03:33:27;100222.00;;;25.59;43.42
16613;BME280;8419;52.358;9.752;2022-09-09T03:36:13;100231.00;;;25.53;43.55
16613;BME280;8419;52.358;9.752;2022-09-09T03:38:59;100227.00;;;25.44;43.76
16613;BME280;8419;52.358;9.752;2022-09-09T03:41:45;100239.00;;;25.52;43.63
16613;BME280;8419;52.358;9.752;2022-09-09T03:44:32;100235.00;;;25.46;43.75
16613;BME280;8419;52.358;9.752;2022-09-09T03:47:19;100237.00;;;25.52;43.65
16613;BME280;8419;52.358;9.752;2022-09-09T03:50:08;100239.00;;;25.55;43.60
16613;BME280;8419;52.358;9.752;2022-09-09T03:52:55;100232.00;;;25.59;43.56
16613;BME280;8419;52.358;9.752;2022-09-09T03:55:44;100229.00;;;25.60;43.57
16613;BME280;8419;52.358;9.752;2022-09-09T03:58:30;100231.00;;;25.65;43.50
16613;BME280;8419;52.358;9.752;2022-09-09T04:01:15;100223.00;;;25.68;43.41
16613;BME280;8419;52.358;9.752;2022-09-09T04:04:02;100225.00;;;25.48;43.89
16613;BME280;8419;52.358;9.752;2022-09-09T04:06:48;100220.00;;;25.55;43.70
16613;BME280;8419;52.358;9.752;2022-09-09T04:09:34;100228.00;;;25.58;43.64
16613;BME280;8419;52.358;9.752;2022-09-09T04:12:19;100227.00;;;25.54;43.71
16613;BME280;8419;52.358;9.752;2022-09-09T04:15:07;100236.00;;;25.61;43.57
16613;BME280;8419;52.358;9.752;2022-09-09T04:17:53;100226.00;;;25.67;43.42
16613;BME280;8419;52.358;9.752;2022-09-09T04:20:38;100233.00;;;25.67;43.41
16613;BME280;8419;52.358;9.752;2022-09-09T04:23:24;100232.00;;;25.73;43.34
16613;BME280;8419;52.358;9.752;2022-09-09T04:26:10;100233.00;;;25.78;43.28
16613;BME280;8419;52.358;9.752;2022-09-09T04:28:55;100235.00;;;25.85;43.19
16613;BME280;8419;52.358;9.752;2022-09-09T04:31:40;100235.00;;;25.75;43.41
16613;BME280;8419;52.358;9.752;2022-09-09T04:34:26;100238.00;;;25.74;43.48
16613;BME280;8419;52.358;9.752;2022-09-09T04:37:12;100236.00;;;25.76;43.44
16613;BME280;8419;52.358;9.752;2022-09-09T04:39:57;100237.00;;;25.80;43.42
16613;BME280;8419;52.358;9.752;2022-09-09T04:42:47;100238.00;;;25.81;43.37
16613;BME280;8419;52.358;9.752;2022-09-09T04:45:35;100239.00;;;25.81;43.40
16613;BME280;8419;52.358;9.752;2022-09-09T04:48:22;100238.00;;;25.80;43.41
16613;BME280;8419;52.358;9.752;2022-09-09T04:51:11;100234.00;;;25.78;43.49
16613;BME280;8419;52.358;9.752;2022-09-09T04:53:57;100238.00;;;25.79;43.51
16613;BME280;8419;52.358;9.752;2022-09-09T04:56:43;100238.00;;;25.77;43.59
16613;BME280;8419;52.358;9.752;2022-09-09T04:59:28;100250.00;;;25.86;43.40
16613;BME280;8419;52.358;9.752;2022-09-09T05:02:13;100244.00;;;25.76;43.62
16613;BME280;8419;52.358;9.752;2022-09-09T05:04:58;100255.00;;;25.87;43.46
16613;BME280;8419;52.358;9.752;2022-09-09T05:07:45;100249.00;;;25.87;43.44
16613;BME280;8419;52.358;9.752;2022-09-09T05:10:31;100253.00;;;25.98;43.28
16613;BME280;8419;52.358;9.752;2022-09-09T05:13:16;100253.00;;;25.99;43.21
16613;BME280;8419;52.358;9.752;2022-09-09T05:16:01;100246.00;;;26.00;43.23
16613;BME280;8419;52.358;9.752;2022-09-09T05:18:47;100251.00;;;26.01;43.20
16613;BME280;8419;52.358;9.752;2022-09-09T05:21:34;100250.00;;;26.04;43.15
16613;BME280;8419;52.358;9.752;2022-09-09T05:24:19;100254.00;;;26.00;43.26
16613;BME280;8419;52.358;9.752;2022-09-09T05:27:05;100257.00;;;26.08;43.07
16613;BME280;8419;52.358;9.752;2022-09-09T05:29:50;100261.00;;;26.12;43.02
16613;BME280;8419;52.358;9.752;2022-09-09T05:32:36;100266.00;;;26.13;43.02
16613;BME280;8419;52.358;9.752;2022-09-09T05:35:21;100270.00;;;26.19;42.91
16613;BME280;8419;52.358;9.752;2022-09-09T05:38:07;100261.00;;;26.21;42.90
16613;BME280;8419;52.358;9.752;2022-09-09T05:40:53;100259.00;;;26.26;42.83
16613;BME280;8419;52.358;9.752;2022-09-09T05:43:39;100275.00;;;26.29;42.78
16613;BME280;8419;52.358;9.752;2022-09-09T05:46:25;100271.00;;;26.25;42.88
16613;BME280;8419;52.358;9.752;2022-09-09T05:49:10;100273.00;;;26.24;42.93
16613;BME280;8419;52.358;9.752;2022-09-09T05:51:56;100276.00;;;26.23;42.96
16613;BME280;8419;52.358;9.752;2022-09-09T05:54:41;100268.00;;;26.26;42.86
16613;BME280;8419;52.358;9.752;2022-09-09T05:57:28;100268.00;;;26.28;42.84
16613;BME280;8419;52.358;9.752;2022-09-09T06:00:14;100269.00;;;26.32;42.78
16613;BME280;8419;52.358;9.752;2022-09-09T06:03:01;100269.00;;;26.35;42.74
16613;BME280;8419;52.358;9.752;2022-09-09T06:05:46;100286.00;;;26.40;42.70
16613;BME280;8419;52.358;9.752;2022-09-09T06:08:32;100275.00;;;26.42;42.71
16613;BME280;8419;52.358;9.752;2022-09-09T06:11:19;100273.00;;;26.44;42.74
16613;BME280;8419;52.358;9.752;2022-09-09T06:14:05;100273.00;;;26.50;42.64
16613;BME280;8419;52.358;9.752;2022-09-09T06:16:52;100274.00;;;26.45;42.67
16613;BME280;8419;52.358;9.752;2022-09-09T06:19:38;100272.00;;;26.45;42.70
16613;BME280;8419;52.358;9.752;2022-09-09T06:22:23;100270.00;;;26.35;42.88
16613;BME280;8419;52.358;9.752;2022-09-09T06:25:09;100284.00;;;26.34;42.92
16613;BME280;8419;52.358;9.752;2022-09-09T06:27:54;100279.00;;;26.43;42.86
16613;BME280;8419;52.358;9.752;2022-09-09T06:30:39;100275.00;;;26.37;43.04
16613;BME280;8419;52.358;9.752;2022-09-09T06:33:30;100274.00;;;26.58;42.74
16613;BME280;8419;52.358;9.752;2022-09-09T06:36:18;100281.00;;;26.72;42.55
16613;BME280;8419;52.358;9.752;2022-09-09T06:39:06;100278.00;;;26.77;42.50
16613;BME280;8419;52.358;9.752;2022-09-09T06:41:53;100277.00;;;26.76;42.57
16613;BME280;8419;52.358;9.752;2022-09-09T06:44:39;100278.00;;;26.78;42.56
16613;BME280;8419;52.358;9.752;2022-09-09T06:47:24;100270.00;;;26.68;42.91
16613;BME280;8419;52.358;9.752;2022-09-09T06:50:10;100277.00;;;26.66;43.14
16613;BME280;8419;52.358;9.752;2022-09-09T06:52:57;100269.00;;;26.90;42.91
16613;BME280;8419;52.358;9.752;2022-09-09T06:55:43;100274.00;;;26.87;43.13
16613;BME280;8419;52.358;9.752;2022-09-09T06:58:30;100270.00;;;27.07;42.76
16613;BME280;8419;52.358;9.752;2022-09-09T07:01:17;100276.00;;;27.36;42.36
16613;BME280;8419;52.358;9.752;2022-09-09T07:04:05;100274.00;;;27.52;42.19
16613;BME280;8419;52.358;9.752;2022-09-09T07:06:52;100272.00;;;27.61;42.05
16613;BME280;8419;52.358;9.752;2022-09-09T07:09:42;100279.00;;;27.62;42.00
16613;BME280;8419;52.358;9.752;2022-09-09T07:12:28;100272.00;;;27.58;42.08
16613;BME280;8419;52.358;9.752;2022-09-09T07:15:13;100275.00;;;27.37;42.47
16613;BME280;8419;52.358;9.752;2022-09-09T07:18:01;100271.00;;;27.32;42.54
16613;BME280;8419;52.358;9.752;2022-09-09T07:20:54;100273.00;;;27.29;42.59
16613;BME280;8419;52.358;9.752;2022-09-09T07:23:40;100279.00;;;27.29;42.60
16613;BME280;8419;52.358;9.752;2022-09-09T07:26:28;100276.00;;;27.21;42.67
16613;BME280;8419;52.358;9.752;2022-09-09T07:29:13;100283.00;;;27.19;42.78
16613;BME280;8419;52.358;9.752;2022-09-09T07:31:58;100279.00;;;27.16;42.83
16613;BME280;8419;52.358;9.752;2022-09-09T07:34:44;100284.00;;;27.19;42.76
16613;BME280;8419;52.358;9.752;2022-09-09T07:37:30;100283.00;;;27.20;42.70
16613;BME280;8419;52.358;9.752;2022-09-09T07:40:16;100282.00;;;27.18;42.78
16613;BME280;8419;52.358;9.752;2022-09-09T07:43:01;100284.00;;;27.23;42.61
16613;BME280;8419;52.358;9.752;2022-09-09T07:45:47;100291.00;;;27.23;42.64
16613;BME280;8419;52.358;9.752;2022-09-09T07:48:33;100284.00;;;27.32;42.47
16613;BME280;8419;52.358;9.752;2022-09-09T07:51:20;100287.00;;;27.21;42.78
16613;BME280;8419;52.358;9.752;2022-09-09T07:54:08;100290.00;;;27.29;42.63
16613;BME280;8419;52.358;9.752;2022-09-09T07:56:54;100289.00;;;27.19;42.72
16613;BME280;8419;52.358;9.752;2022-09-09T07:59:39;100281.00;;;27.53;42.23
16613;BME280;8419;52.358;9.752;2022-09-09T08:02:25;100283.00;;;27.71;41.99
16613;BME280;8419;52.358;9.752;2022-09-09T08:05:13;100293.00;;;27.93;41.69
16613;BME280;8419;52.358;9.752;2022-09-09T08:07:59;100284.00;;;28.08;41.50
16613;BME280;8419;52.358;9.752;2022-09-09T08:10:45;100294.00;;;28.12;41.43
16613;BME280;8419;52.358;9.752;2022-09-09T08:13:31;100300.00;;;28.24;41.28
16613;BME280;8419;52.358;9.752;2022-09-09T08:16:19;100297.00;;;28.33;41.21
16613;BME280;8419;52.358;9.752;2022-09-09T08:19:07;100299.00;;;28.41;41.17
16613;BME280;8419;52.358;9.752;2022-09-09T08:21:53;100304.00;;;28.58;40.84
16613;BME280;8419;52.358;9.752;2022-09-09T08:24:39;100301.00;;;28.61;40.91
16613;BME280;8419;52.358;9.752;2022-09-09T08:27:25;100295.00;;;28.97;40.50
16613;BME280;8419;52.358;9.752;2022-09-09T08:30:12;100298.00;;;29.18;40.16
16613;BME280;8419;52.358;9.752;2022-09-09T08:32:58;100304.00;;;29.38;39.85
16613;BME280;8419;52.358;9.752;2022-09-09T08:35:51;100298.00;;;28.88;41.04
16613;BME280;8419;52.358;9.752;2022-09-09T08:38:37;100307.00;;;29.27;40.48
16613;BME280;8419;52.358;9.752;2022-09-09T08:41:41;100312.00;;;29.79;39.52
16613;BME280;8419;52.358;9.752;2022-09-09T08:44:41;100316.00;;;30.06;38.96
16613;BME280;8419;52.358;9.752;2022-09-09T08:47:39;100323.00;;;30.22;38.50
16613;BME280;8419;52.358;9.752;2022-09-09T08:50:29;100317.00;;;30.14;38.30
16613;BME280;8419;52.358;9.752;2022-09-09T08:53:19;100324.00;;;30.26;38.04
16613;BME280;8419;52.358;9.752;2022-09-09T08:56:11;100325.00;;;30.40;37.74
16613;BME280;8419;52.358;9.752;2022-09-09T08:59:01;100337.00;;;30.49;37.64
16613;BME280;8419;52.358;9.752;2022-09-09T09:02:15;100338.00;;;30.64;37.33
16613;BME280;8419;52.358;9.752;2022-09-09T09:05:14;100340.00;;;30.67;37.31
16613;BME280;8419;52.358;9.752;2022-09-09T09:08:10;100339.00;;;30.78;36.94
16613;BME280;8419;52.358;9.752;2022-09-09T09:11:03;100340.00;;;30.77;36.88
16613;BME280;8419;52.358;9.752;2022-09-09T09:13:56;100333.00;;;30.75;36.70
16613;BME280;8419;52.358;9.752;2022-09-09T09:16:48;100335.00;;;30.82;36.55
16613;BME280;8419;52.358;9.752;2022-09-09T09:19:38;100338.00;;;30.84;36.52
16613;BME280;8419;52.358;9.752;2022-09-09T09:22:29;100336.00;;;30.93;36.10
16613;BME280;8419;52.358;9.752;2022-09-09T09:25:22;100337.00;;;30.98;36.01
16613;BME280;8419;52.358;9.752;2022-09-09T09:28:15;100338.00;;;31.07;35.72
16613;BME280;8419;52.358;9.752;2022-09-09T09:31:05;100338.00;;;31.07;35.58
16613;BME280;8419;52.358;9.752;2022-09-09T09:33:53;100337.00;;;31.15;35.36
16613;BME280;8419;52.358;9.752;2022-09-09T09:36:42;100330.00;;;31.25;35.33
16613;BME280;8419;52.358;9.752;2022-09-09T09:39:32;100329.00;;;31.52;34.98
16613;BME280;8419;52.358;9.752;2022-09-09T09:42:21;100325.00;;;31.64;34.65
16613;BME280;8419;52.358;9.752;2022-09-09T09:45:17;100329.00;;;31.69;34.52
16613;BME280;8419;52.358;9.752;2022-09-09T09:48:11;100329.00;;;31.68;34.55
16613;BME280;8419;52.358;9.752;2022-09-09T09:50:59;100327.00;;;31.77;34.49
16613;BME280;8419;52.358;9.752;2022-09-09T09:53:46;100324.00;;;31.86;34.29
16613;BME280;8419;52.358;9.752;2022-09-09T09:56:32;100321.00;;;31.88;34.26
16613;BME280;8419;52.358;9.752;2022-09-09T09:59:23;100319.00;;;31.92;34.15
16613;BME280;8419;52.358;9.752;2022-09-09T10:02:16;100319.00;;;32.06;33.66
16613;BME280;8419;52.358;9.752;2022-09-09T10:05:04;100316.00;;;32.21;33.53
16613;BME280;8419;52.358;9.752;2022-09-09T10:08:02;100312.00;;;32.37;33.38
16613;BME280;8419;52.358;9.752;2022-09-09T10:14:20;100311.00;;;32.07;33.28
16613;BME280;8419;52.358;9.752;2022-09-09T10:17:15;100306.00;;;31.82;33.44
16613;BME280;8419;52.358;9.752;2022-09-09T10:20:23;100308.00;;;31.58;33.70
16613;BME280;8419;52.358;9.752;2022-09-09T10:23:25;100304.00;;;31.46;33.96
16613;BME280;8419;52.358;9.752;2022-09-09T10:26:31;100309.00;;;31.43;33.98
16613;BME280;8419;52.358;9.752;2022-09-09T10:29:27;100304.00;;;31.43;34.03
16613;BME280;8419;52.358;9.752;2022-09-09T10:32:30;100300.00;;;31.42;33.97
16613;BME280;8419;52.358;9.752;2022-09-09T10:35:29;100306.00;;;31.34;34.03
16613;BME280;8419;52.358;9.752;2022-09-09T10:38:16;100299.00;;;31.07;34.33
16613;BME280;8419;52.358;9.752;2022-09-09T10:41:12;100306.00;;;30.99;34.34
16613;BME280;8419;52.358;9.752;2022-09-09T10:44:25;100299.00;;;30.84;34.45
16613;BME280;8419;52.358;9.752;2022-09-09T10:47:43;100291.00;;;30.82;34.48
16613;BME280;8419;52.358;9.752;2022-09-09T10:50:55;100290.00;;;30.71;34.64
16613;BME280;8419;52.358;9.752;2022-09-09T10:53:53;100310.00;;;30.67;34.64
16613;BME280;8419;52.358;9.752;2022-09-09T10:56:48;100308.00;;;30.41;35.10
16613;BME280;8419;52.358;9.752;2022-09-09T10:59:42;100318.00;;;30.50;35.08
16613;BME280;8419;52.358;9.752;2022-09-09T11:02:30;100320.00;;;30.73;34.82
16613;BME280;8419;52.358;9.752;2022-09-09T11:05:18;100308.00;;;30.79;34.93
16613;BME280;8419;52.358;9.752;2022-09-09T11:08:09;100315.00;;;30.80;35.01
16613;BME280;8419;52.358;9.752;2022-09-09T11:11:02;100313.00;;;30.72;35.34
16613;BME280;8419;52.358;9.752;2022-09-09T11:13:53;100317.00;;;30.58;35.46
16613;BME280;8419;52.358;9.752;2022-09-09T11:16:44;100311.00;;;30.46;35.67
16613;BME280;8419;52.358;9.752;2022-09-09T11:19:34;100304.00;;;30.48;35.55
16613;BME280;8419;52.358;9.752;2022-09-09T11:22:27;100302.00;;;30.34;35.56
16613;BME280;8419;52.358;9.752;2022-09-09T11:25:17;100304.00;;;30.19;35.79
16613;BME280;8419;52.358;9.752;2022-09-09T11:28:14;100314.00;;;30.05;36.00
16613;BME280;8419;52.358;9.752;2022-09-09T11:31:25;100332.00;;;29.47;36.81
16613;BME280;8419;52.358;9.752;2022-09-09T11:34:30;100336.00;;;28.65;37.90
16613;BME280;8419;52.358;9.752;2022-09-09T11:37:31;100356.00;;;28.00;38.84
16613;BME280;8419;52.358;9.752;2022-09-09T11:40:24;100355.00;;;27.43;39.35
16613;BME280;8419;52.358;9.752;2022-09-09T11:43:12;100344.00;;;26.87;39.63
16613;BME280;8419;52.358;9.752;2022-09-09T11:46:02;100343.00;;;26.62;39.66
16613;BME280;8419;52.358;9.752;2022-09-09T11:49:00;100331.00;;;26.24;40.07
16613;BME280;8419;52.358;9.752;2022-09-09T11:51:45;100339.00;;;26.12;40.26
16613;BME280;8419;52.358;9.752;2022-09-09T11:54:33;100335.00;;;26.09;40.31
16613;BME280;8419;52.358;9.752;2022-09-09T11:57:26;100340.00;;;26.11;40.40
16613;BME280;8419;52.358;9.752;2022-09-09T12:00:32;100327.00;;;26.11;40.45
16613;BME280;8419;52.358;9.752;2022-09-09T12:03:39;100327.00;;;26.06;40.64
16613;BME280;8419;52.358;9.752;2022-09-09T12:06:30;100323.00;;;26.19;40.52
16613;BME280;8419;52.358;9.752;2022-09-09T12:09:21;100313.00;;;26.24;40.54
16613;BME280;8419;52.358;9.752;2022-09-09T12:12:27;100306.00;;;26.26;40.66
16613;BME280;8419;52.358;9.752;2022-09-09T12:15:23;100312.00;;;26.38;40.64
16613;BME280;8419;52.358;9.752;2022-09-09T12:18:15;100314.00;;;26.52;40.60
16613;BME280;8419;52.358;9.752;2022-09-09T12:21:13;100320.00;;;26.74;40.63
16613;BME280;8419;52.358;9.752;2022-09-09T12:24:07;100316.00;;;27.09;40.54
16613;BME280;8419;52.358;9.752;2022-09-09T12:26:58;100314.00;;;27.70;40.21
16613;BME280;8419;52.358;9.752;2022-09-09T12:29:52;100322.00;;;28.50;39.40
16613;BME280;8419;52.358;9.752;2022-09-09T12:32:40;100321.00;;;29.45;38.47
16613;BME280;8419;52.358;9.752;2022-09-09T12:35:29;100311.00;;;30.36;37.25
16613;BME280;8419;52.358;9.752;2022-09-09T12:38:19;100330.00;;;31.16;36.24
16613;BME280;8419;52.358;9.752;2022-09-09T12:41:19;100332.00;;;31.48;35.63
16613;BME280;8419;52.358;9.752;2022-09-09T12:44:08;100322.00;;;31.87;35.58
16613;BME280;8419;52.358;9.752;2022-09-09T12:46:55;100312.00;;;32.37;34.87
16613;BME280;8419;52.358;9.752;2022-09-09T12:49:44;100311.00;;;32.76;34.24
16613;BME280;8419;52.358;9.752;2022-09-09T12:52:32;100307.00;;;32.64;34.41
16613;BME280;8419;52.358;9.752;2022-09-09T12:55:21;100300.00;;;32.35;34.57
16613;BME280;8419;52.358;9.752;2022-09-09T12:58:14;100300.00;;;31.95;34.95
16613;BME280;8419;52.358;9.752;2022-09-09T13:01:03;100306.00;;;31.67;35.12
16613;BME280;8419;52.358;9.752;2022-09-09T13:03:50;100310.00;;;31.66;35.09
16613;BME280;8419;52.358;9.752;2022-09-09T13:06:35;100306.00;;;31.62;35.26
16613;BME280;8419;52.358;9.752;2022-09-09T13:09:21;100307.00;;;31.78;34.88
16613;BME280;8419;52.358;9.752;2022-09-09T13:12:12;100298.00;;;31.76;34.75
16613;BME280;8419;52.358;9.752;2022-09-09T13:14:59;100298.00;;;31.72;34.68
16613;BME280;8419;52.358;9.752;2022-09-09T13:17:50;100303.00;;;31.55;34.79
16613;BME280;8419;52.358;9.752;2022-09-09T13:20:38;100298.00;;;31.31;35.21
16613;BME280;8419;52.358;9.752;2022-09-09T13:23:27;100302.00;;;31.18;35.45
16613;BME280;8419;52.358;9.752;2022-09-09T13:26:22;100298.00;;;30.81;35.90
16613;BME280;8419;52.358;9.752;2022-09-09T13:29:16;100294.00;;;30.53;36.31
16613;BME280;8419;52.358;9.752;2022-09-09T13:32:12;100289.00;;;30.38;36.58
16613;BME280;8419;52.358;9.752;2022-09-09T13:35:02;100294.00;;;30.24;36.69
16613;BME280;8419;52.358;9.752;2022-09-09T13:37:47;100284.00;;;30.11;36.83
16613;BME280;8419;52.358;9.752;2022-09-09T13:40:34;100277.00;;;30.09;36.85
16613;BME280;8419;52.358;9.752;2022-09-09T13:43:23;100274.00;;;30.12;36.76
16613;BME280;8419;52.358;9.752;2022-09-09T13:46:26;100269.00;;;30.07;36.81
16613;BME280;8419;52.358;9.752;2022-09-09T13:49:21;100267.00;;;30.01;37.16
16613;BME280;8419;52.358;9.752;2022-09-09T13:52:11;100260.00;;;30.02;37.02
16613;BME280;8419;52.358;9.752;2022-09-09T13:54:59;100264.00;;;30.03;37.13
16613;BME280;8419;52.358;9.752;2022-09-09T13:57:52;100254.00;;;30.00;37.10
16613;BME280;8419;52.358;9.752;2022-09-09T14:00:38;100263.00;;;29.89;37.33
16613;BME280;8419;52.358;9.752;2022-09-09T14:03:24;100264.00;;;29.90;37.33
16613;BME280;8419;52.358;9.752;2022-09-09T14:06:11;100258.00;;;29.99;37.22
16613;BME280;8419;52.358;9.752;2022-09-09T14:08:56;100269.00;;;30.14;37.13
16613;BME280;8419;52.358;9.752;2022-09-09T14:11:42;100265.00;;;30.35;36.67
16613;BME280;8419;52.358;9.752;2022-09-09T14:14:28;100270.00;;;30.55;36.27
16613;BME280;8419;52.358;9.752;2022-09-09T14:17:13;100269.00;;;30.72;36.16
16613;BME280;8419;52.358;9.752;2022-09-09T14:19:59;100261.00;;;31.10;35.72
16613;BME280;8419;52.358;9.752;2022-09-09T14:22:45;100260.00;;;31.35;35.35
16613;BME280;8419;52.358;9.752;2022-09-09T14:25:30;100265.00;;;31.45;35.17
16613;BME280;8419;52.358;9.752;2022-09-09T14:28:17;100254.00;;;31.49;35.16
16613;BME280;8419;52.358;9.752;2022-09-09T14:31:03;100254.00;;;31.45;35.11
16613;BME280;8419;52.358;9.752;2022-09-09T14:33:51;100263.00;;;31.51;35.05
16613;BME280;8419;52.358;9.752;2022-09-09T14:36:38;100251.00;;;31.39;35.11
16613;BME280;8419;52.358;9.752;2022-09-09T14:39:23;100251.00;;;31.50;35.01
16613;BME280;8419;52.358;9.752;2022-09-09T14:42:08;100250.00;;;31.80;34.69
16613;BME280;8419;52.358;9.752;2022-09-09T14:44:55;100248.00;;;32.25;34.17
16613;BME280;8419;52.358;9.752;2022-09-09T14:47:41;100252.00;;;32.47;34.04
16613;BME280;8419;52.358;9.752;2022-09-09T14:50:26;100244.00;;;32.64;33.57
16613;BME280;8419;52.358;9.752;2022-09-09T14:53:12;100242.00;;;32.53;33.74
16613;BME280;8419;52.358;9.752;2022-09-09T14:56:05;100242.00;;;32.41;33.98
16613;BME280;8419;52.358;9.752;2022-09-09T14:58:52;100238.00;;;32.65;33.76
16613;BME280;8419;52.358;9.752;2022-09-09T15:01:38;100238.00;;;33.42;32.51